SBI7006 UNEE-UNNT
Flight info
| Callsign | SBI7006 |
|---|---|
| Flight time | 0h 29m |
| Altitude | 18000 |
| Route | NATIR1D NATIR NATIR1K |
| Aircraft | E170/M-SDE3GILORVW/S |
Departure
| Time | 2026-04-29 16:42 |
|---|---|
| Airport | Alexei Leonov Kemerovo International Airport (UNEE) |
Arrival
| Time | 2026-04-29 17:11 |
|---|---|
| Airport | Novosibirsk Tolmachevo Airport (UNNT) |
| Time | Latitude | Longitude | Altitude | Speed | Heading |
|---|---|---|---|---|---|
| 2026-04-29 16:14 | 55.27968 | 86.11587 | 878 ft | 0 kts | 324° |
| 2026-04-29 16:31 | 55.27968 | 86.11586 | 878 ft | 0 kts | 324° |
| 2026-04-29 16:31 | 55.27958 | 86.11599 | 878 ft | 2 kts | 324° |
| 2026-04-29 16:32 | 55.27946 | 86.11614 | 878 ft | 2 kts | 324° |
| 2026-04-29 16:32 | 55.27934 | 86.11629 | 878 ft | 2 kts | 324° |
| 2026-04-29 16:32 | 55.27922 | 86.11645 | 878 ft | 2 kts | 324° |
| 2026-04-29 16:32 | 55.27910 | 86.11660 | 878 ft | 2 kts | 324° |
| 2026-04-29 16:33 | 55.27884 | 86.11684 | 878 ft | 2 kts | 356° |
| 2026-04-29 16:33 | 55.27869 | 86.11681 | 878 ft | 2 kts | 22° |
| 2026-04-29 16:33 | 55.27857 | 86.11667 | 878 ft | 2 kts | 41° |
| 2026-04-29 16:34 | 55.27847 | 86.11647 | 878 ft | 2 kts | 56° |
| 2026-04-29 16:34 | 55.27845 | 86.11643 | 878 ft | 0 kts | 55° |
| 2026-04-29 16:35 | 55.27846 | 86.11643 | 878 ft | 0 kts | 55° |
| 2026-04-29 16:35 | 55.27852 | 86.11659 | 878 ft | 2 kts | 55° |
| 2026-04-29 16:36 | 55.27871 | 86.11706 | 878 ft | 7 kts | 55° |
| 2026-04-29 16:36 | 55.27893 | 86.11761 | 878 ft | 10 kts | 54° |
| 2026-04-29 16:39 | 55.27918 | 86.11824 | 878 ft | 11 kts | 54° |
| 2026-04-29 16:39 | 55.27965 | 86.11942 | 878 ft | 12 kts | 55° |
| 2026-04-29 16:39 | 55.28016 | 86.12071 | 878 ft | 13 kts | 56° |
| 2026-04-29 16:39 | 55.28069 | 86.12210 | 878 ft | 14 kts | 55° |
| 2026-04-29 16:40 | 55.28067 | 86.12371 | 878 ft | 14 kts | 125° |
| 2026-04-29 16:40 | 55.28005 | 86.12519 | 878 ft | 15 kts | 125° |
| 2026-04-29 16:40 | 55.27935 | 86.12666 | 878 ft | 16 kts | 144° |
| 2026-04-29 16:40 | 55.27845 | 86.12739 | 878 ft | 12 kts | 200° |
| 2026-04-29 16:41 | 55.27805 | 86.12661 | 878 ft | 0 kts | 233° |
| 2026-04-29 16:41 | 55.27805 | 86.12660 | 878 ft | 0 kts | 233° |
| 2026-04-29 16:41 | 55.27713 | 86.12444 | 878 ft | 56 kts | 233° |
| 2026-04-29 16:42 | 55.27351 | 86.11587 | 878 ft | 117 kts | 232° |
| 2026-04-29 16:42 | 55.26789 | 86.10212 | 946 ft | 154 kts | 230° |
| 2026-04-29 16:42 | 55.26114 | 86.08825 | 1544 ft | 151 kts | 231° |
| 2026-04-29 16:42 | 55.25526 | 86.07314 | 2119 ft | 155 kts | 236° |
| 2026-04-29 16:43 | 55.24887 | 86.05653 | 2532 ft | 179 kts | 234° |
| 2026-04-29 16:43 | 55.24119 | 86.03755 | 2947 ft | 202 kts | 234° |
| 2026-04-29 16:43 | 55.23266 | 86.01723 | 3537 ft | 215 kts | 233° |
| 2026-04-29 16:43 | 55.22358 | 85.99606 | 4284 ft | 220 kts | 233° |
| 2026-04-29 16:44 | 55.21442 | 85.97504 | 5064 ft | 221 kts | 233° |
| 2026-04-29 16:44 | 55.20511 | 85.95374 | 5824 ft | 223 kts | 233° |
| 2026-04-29 16:44 | 55.19574 | 85.93202 | 6511 ft | 229 kts | 234° |
| 2026-04-29 16:44 | 55.18611 | 85.90926 | 7136 ft | 241 kts | 235° |
| 2026-04-29 16:45 | 55.17607 | 85.88561 | 7943 ft | 244 kts | 235° |
| 2026-04-29 16:45 | 55.16616 | 85.86231 | 8828 ft | 242 kts | 236° |
| 2026-04-29 16:45 | 55.15656 | 85.83842 | 9636 ft | 240 kts | 249° |
| 2026-04-29 16:45 | 55.15401 | 85.81072 | 10313 ft | 237 kts | 276° |
| 2026-04-29 16:46 | 55.15507 | 85.78191 | 10982 ft | 242 kts | 276° |
| 2026-04-29 16:46 | 55.15627 | 85.75187 | 11496 ft | 255 kts | 276° |
| 2026-04-29 16:46 | 55.15757 | 85.72034 | 11922 ft | 270 kts | 276° |
| 2026-04-29 16:46 | 55.15896 | 85.68671 | 12335 ft | 284 kts | 276° |
| 2026-04-29 16:47 | 55.16042 | 85.65143 | 12845 ft | 296 kts | 276° |
| 2026-04-29 16:47 | 55.16190 | 85.61574 | 13452 ft | 301 kts | 276° |
| 2026-04-29 16:47 | 55.16340 | 85.57925 | 14171 ft | 303 kts | 276° |
| 2026-04-29 16:47 | 55.16489 | 85.54267 | 14928 ft | 303 kts | 276° |
| 2026-04-29 16:48 | 55.16637 | 85.50600 | 15674 ft | 302 kts | 276° |
| 2026-04-29 16:48 | 55.16784 | 85.46957 | 16377 ft | 303 kts | 276° |
| 2026-04-29 16:48 | 55.16930 | 85.43304 | 17017 ft | 305 kts | 276° |
| 2026-04-29 16:48 | 55.17077 | 85.39630 | 17655 ft | 307 kts | 276° |
| 2026-04-29 16:49 | 55.17223 | 85.35890 | 18230 ft | 302 kts | 276° |
| 2026-04-29 16:49 | 55.17369 | 85.32194 | 18325 ft | 315 kts | 276° |
| 2026-04-29 16:49 | 55.17523 | 85.28230 | 18360 ft | 338 kts | 275° |
| 2026-04-29 16:49 | 55.17686 | 85.23995 | 18361 ft | 356 kts | 275° |
| 2026-04-29 16:50 | 55.17851 | 85.19657 | 18347 ft | 360 kts | 275° |
| 2026-04-29 16:50 | 55.18016 | 85.15277 | 18338 ft | 361 kts | 275° |
| 2026-04-29 16:50 | 55.18178 | 85.10933 | 18335 ft | 361 kts | 275° |
| 2026-04-29 16:50 | 55.18339 | 85.06564 | 18335 ft | 361 kts | 275° |
| 2026-04-29 16:51 | 55.18499 | 85.02204 | 18335 ft | 361 kts | 275° |
| 2026-04-29 16:51 | 55.18658 | 84.97832 | 18334 ft | 361 kts | 275° |
| 2026-04-29 16:51 | 55.18815 | 84.93456 | 18335 ft | 360 kts | 275° |
| 2026-04-29 16:51 | 55.18970 | 84.89095 | 18334 ft | 360 kts | 275° |
| 2026-04-29 16:52 | 55.19123 | 84.84736 | 18334 ft | 360 kts | 275° |
| 2026-04-29 16:52 | 55.19275 | 84.80403 | 18334 ft | 360 kts | 275° |
| 2026-04-29 16:52 | 55.19426 | 84.75999 | 18333 ft | 360 kts | 275° |
| 2026-04-29 16:52 | 55.19569 | 84.71664 | 18332 ft | 360 kts | 273° |
| 2026-04-29 16:53 | 55.19202 | 84.67376 | 18353 ft | 361 kts | 257° |
| 2026-04-29 16:53 | 55.18514 | 84.63214 | 18328 ft | 352 kts | 256° |
| 2026-04-29 16:53 | 55.17817 | 84.59107 | 18334 ft | 351 kts | 256° |
| 2026-04-29 16:53 | 55.17126 | 84.55074 | 18333 ft | 350 kts | 256° |
| 2026-04-29 16:54 | 55.16415 | 84.50948 | 18253 ft | 353 kts | 256° |
| 2026-04-29 16:54 | 55.15708 | 84.46862 | 17887 ft | 352 kts | 256° |
| 2026-04-29 16:54 | 55.15009 | 84.42834 | 17509 ft | 349 kts | 256° |
| 2026-04-29 16:54 | 55.14310 | 84.38815 | 17131 ft | 347 kts | 256° |
| 2026-04-29 16:55 | 55.13606 | 84.34774 | 16749 ft | 346 kts | 255° |
| 2026-04-29 16:55 | 55.12913 | 84.30806 | 16369 ft | 344 kts | 255° |
| 2026-04-29 16:55 | 55.12218 | 84.26833 | 15991 ft | 342 kts | 255° |
| 2026-04-29 16:55 | 55.11528 | 84.22899 | 15617 ft | 340 kts | 255° |
| 2026-04-29 16:56 | 55.10838 | 84.18973 | 15243 ft | 339 kts | 255° |
| 2026-04-29 16:56 | 55.10146 | 84.15043 | 14873 ft | 338 kts | 255° |
| 2026-04-29 16:56 | 55.09461 | 84.11166 | 14511 ft | 337 kts | 255° |
| 2026-04-29 16:56 | 55.08775 | 84.07290 | 14142 ft | 335 kts | 255° |
| 2026-04-29 16:57 | 55.08102 | 84.03389 | 13760 ft | 332 kts | 259° |
| 2026-04-29 16:57 | 55.07793 | 83.99452 | 13414 ft | 330 kts | 266° |
| 2026-04-29 16:57 | 55.07552 | 83.95466 | 13036 ft | 328 kts | 266° |
| 2026-04-29 16:57 | 55.07314 | 83.91581 | 12674 ft | 326 kts | 266° |
| 2026-04-29 16:58 | 55.07074 | 83.87679 | 12311 ft | 324 kts | 265° |
| 2026-04-29 16:58 | 55.06835 | 83.83817 | 11953 ft | 318 kts | 265° |
| 2026-04-29 16:58 | 55.06599 | 83.80039 | 11598 ft | 306 kts | 266° |
| 2026-04-29 16:58 | 55.06372 | 83.76427 | 11264 ft | 293 kts | 266° |
| 2026-04-29 16:59 | 55.06155 | 83.72973 | 10944 ft | 282 kts | 266° |
| 2026-04-29 16:59 | 55.05947 | 83.69678 | 10646 ft | 272 kts | 266° |
| 2026-04-29 16:59 | 55.05744 | 83.66483 | 10353 ft | 263 kts | 266° |
| 2026-04-29 16:59 | 55.05544 | 83.63352 | 10062 ft | 254 kts | 266° |
| 2026-04-29 17:00 | 55.05354 | 83.60380 | 9789 ft | 246 kts | 266° |
| 2026-04-29 17:00 | 55.05167 | 83.57457 | 9522 ft | 239 kts | 266° |
| 2026-04-29 17:00 | 55.04983 | 83.54617 | 9264 ft | 233 kts | 266° |
| 2026-04-29 17:00 | 55.04803 | 83.51828 | 9016 ft | 232 kts | 266° |
| 2026-04-29 17:01 | 55.04623 | 83.49061 | 8772 ft | 233 kts | 265° |
| 2026-04-29 17:01 | 55.04440 | 83.46250 | 8517 ft | 233 kts | 265° |
| 2026-04-29 17:01 | 55.04257 | 83.43441 | 8257 ft | 233 kts | 265° |
| 2026-04-29 17:01 | 55.04073 | 83.40646 | 7997 ft | 231 kts | 265° |
| 2026-04-29 17:02 | 55.03892 | 83.37903 | 7739 ft | 229 kts | 265° |
| 2026-04-29 17:02 | 55.03712 | 83.35173 | 7489 ft | 229 kts | 265° |
| 2026-04-29 17:02 | 55.03247 | 83.32535 | 7269 ft | 229 kts | 237° |
| 2026-04-29 17:02 | 55.02314 | 83.30299 | 7324 ft | 229 kts | 234° |
| 2026-04-29 17:03 | 55.01366 | 83.28087 | 7333 ft | 231 kts | 234° |
| 2026-04-29 17:03 | 55.00388 | 83.25825 | 7237 ft | 233 kts | 234° |
| 2026-04-29 17:03 | 54.99410 | 83.23573 | 7019 ft | 233 kts | 234° |
| 2026-04-29 17:03 | 54.98441 | 83.21349 | 6776 ft | 232 kts | 234° |
| 2026-04-29 17:04 | 54.97472 | 83.19128 | 6524 ft | 230 kts | 234° |
| 2026-04-29 17:04 | 54.96508 | 83.16924 | 6235 ft | 230 kts | 233° |
| 2026-04-29 17:04 | 54.95528 | 83.14683 | 5726 ft | 234 kts | 233° |
| 2026-04-29 17:04 | 54.94552 | 83.12457 | 5417 ft | 230 kts | 233° |
| 2026-04-29 17:05 | 54.93671 | 83.10202 | 5135 ft | 223 kts | 251° |
| 2026-04-29 17:05 | 54.93678 | 83.07601 | 4939 ft | 220 kts | 292° |
| 2026-04-29 17:05 | 54.94530 | 83.05398 | 4653 ft | 223 kts | 308° |
| 2026-04-29 17:05 | 54.95509 | 83.03329 | 4358 ft | 223 kts | 309° |
| 2026-04-29 17:06 | 54.96503 | 83.01293 | 4105 ft | 220 kts | 309° |
| 2026-04-29 17:06 | 54.97497 | 82.99291 | 3877 ft | 212 kts | 309° |
| 2026-04-29 17:06 | 54.98454 | 82.97379 | 3602 ft | 206 kts | 309° |
| 2026-04-29 17:06 | 54.99360 | 82.95579 | 3464 ft | 193 kts | 309° |
| 2026-04-29 17:07 | 55.00235 | 82.93841 | 3247 ft | 185 kts | 309° |
| 2026-04-29 17:07 | 55.01069 | 82.92188 | 3029 ft | 178 kts | 309° |
| 2026-04-29 17:07 | 55.01873 | 82.90592 | 2828 ft | 172 kts | 308° |
| 2026-04-29 17:07 | 55.02657 | 82.89038 | 2652 ft | 170 kts | 308° |
| 2026-04-29 17:08 | 55.03116 | 82.87241 | 2509 ft | 157 kts | 266° |
| 2026-04-29 17:08 | 55.03079 | 82.85381 | 2452 ft | 153 kts | 260° |
| 2026-04-29 17:08 | 55.02919 | 82.83586 | 2220 ft | 151 kts | 256° |
| 2026-04-29 17:08 | 55.02752 | 82.81772 | 1995 ft | 150 kts | 256° |
| 2026-04-29 17:09 | 55.02594 | 82.80006 | 1772 ft | 142 kts | 256° |
| 2026-04-29 17:09 | 55.02450 | 82.78397 | 1564 ft | 131 kts | 255° |
| 2026-04-29 17:09 | 55.02323 | 82.76820 | 1366 ft | 131 kts | 257° |
| 2026-04-29 17:09 | 55.02193 | 82.75256 | 1192 ft | 132 kts | 256° |
| 2026-04-29 17:10 | 55.02050 | 82.73679 | 1016 ft | 132 kts | 256° |
| 2026-04-29 17:10 | 55.01895 | 82.72092 | 879 ft | 132 kts | 257° |
| 2026-04-29 17:10 | 55.01754 | 82.70511 | 693 ft | 133 kts | 256° |
| 2026-04-29 17:10 | 55.01603 | 82.68932 | 489 ft | 132 kts | 257° |
| 2026-04-29 17:11 | 55.01454 | 82.67368 | 358 ft | 126 kts | 258° |
| 2026-04-29 17:11 | 55.01335 | 82.66092 | 351 ft | 82 kts | 260° |
| 2026-04-29 17:11 | 55.01266 | 82.65315 | 351 ft | 41 kts | 262° |
| 2026-04-29 17:11 | 55.01234 | 82.65073 | 351 ft | 11 kts | 221° |
| 2026-04-29 17:12 | 55.01145 | 82.65068 | 351 ft | 14 kts | 169° |
| 2026-04-29 17:12 | 55.01045 | 82.65095 | 351 ft | 15 kts | 173° |
| 2026-04-29 17:12 | 55.00956 | 82.65119 | 351 ft | 10 kts | 171° |
| 2026-04-29 17:12 | 55.00907 | 82.65133 | 351 ft | 8 kts | 169° |
| 2026-04-29 17:13 | 55.00883 | 82.65265 | 352 ft | 14 kts | 88° |
| 2026-04-29 17:13 | 55.00901 | 82.65473 | 354 ft | 19 kts | 81° |
| 2026-04-29 17:13 | 55.00923 | 82.65710 | 356 ft | 21 kts | 82° |
| 2026-04-29 17:13 | 55.00945 | 82.65977 | 356 ft | 23 kts | 82° |
| 2026-04-29 17:14 | 55.00995 | 82.66254 | 355 ft | 24 kts | 66° |
| 2026-04-29 17:14 | 55.01058 | 82.66537 | 354 ft | 26 kts | 70° |
| 2026-04-29 17:14 | 55.01090 | 82.66697 | 353 ft | 8 kts | 78° |
| 2026-04-29 17:14 | 55.01049 | 82.66750 | 354 ft | 8 kts | 171° |
| 2026-04-29 17:15 | 55.01024 | 82.66758 | 354 ft | 0 kts | 169° |
| 2026-04-29 17:22 | 55.01035 | 82.66754 | 354 ft | 2 kts | 169° |
| 2026-04-29 17:22 | 55.01049 | 82.66750 | 354 ft | 2 kts | 169° |
| 2026-04-29 17:22 | 55.01064 | 82.66744 | 354 ft | 2 kts | 169° |
| 2026-04-29 17:23 | 55.01079 | 82.66742 | 353 ft | 2 kts | 197° |
| 2026-04-29 17:23 | 55.01092 | 82.66756 | 353 ft | 2 kts | 230° |
| 2026-04-29 17:23 | 55.01098 | 82.66775 | 354 ft | 0 kts | 259° |
| 2026-04-29 17:23 | 55.01098 | 82.66778 | 354 ft | 1 kts | 258° |
| 2026-04-29 17:24 | 55.01093 | 82.66715 | 353 ft | 7 kts | 260° |
| 2026-04-29 17:24 | 55.01078 | 82.66625 | 353 ft | 7 kts | 249° |
| 2026-04-29 17:24 | 55.01063 | 82.66561 | 354 ft | 3 kts | 249° |
| 2026-04-29 17:24 | 55.01056 | 82.66537 | 354 ft | 3 kts | 227° |
| 2026-04-29 17:25 | 55.01035 | 82.66524 | 354 ft | 3 kts | 176° |
| 2026-04-29 17:25 | 55.00994 | 82.66536 | 355 ft | 7 kts | 171° |
| 2026-04-29 17:25 | 55.00959 | 82.66546 | 355 ft | 2 kts | 171° |
| 2026-04-29 17:25 | 55.00954 | 82.66547 | 355 ft | 0 kts | 171° |